sensor_id;sensor_type;location;lat;lon;timestamp;P1;durP1;ratioP1;P2;durP2;ratioP2
17925;SDS011;9088;55.674;13.354;2023-04-01T00:02:13;2.90;;;2.80;;
17925;SDS011;9088;55.674;13.354;2023-04-01T00:04:40;2.90;;;2.80;;
17925;SDS011;9088;55.674;13.354;2023-04-01T00:07:09;2.97;;;2.87;;
17925;SDS011;9088;55.674;13.354;2023-04-01T00:09:36;2.97;;;2.87;;
17925;SDS011;9088;55.674;13.354;2023-04-01T00:12:03;2.87;;;2.77;;
17925;SDS011;9088;55.674;13.354;2023-04-01T00:14:30;2.83;;;2.73;;
17925;SDS011;9088;55.674;13.354;2023-04-01T00:16:57;2.80;;;2.70;;
17925;SDS011;9088;55.674;13.354;2023-04-01T00:19:25;3.00;;;2.90;;
17925;SDS011;9088;55.674;13.354;2023-04-01T00:21:52;2.80;;;2.70;;
17925;SDS011;9088;55.674;13.354;2023-04-01T00:24:20;2.90;;;2.80;;
17925;SDS011;9088;55.674;13.354;2023-04-01T00:26:47;2.87;;;2.77;;
17925;SDS011;9088;55.674;13.354;2023-04-01T00:29:14;2.80;;;2.70;;
17925;SDS011;9088;55.674;13.354;2023-04-01T00:31:41;2.90;;;2.80;;
17925;SDS011;9088;55.674;13.354;2023-04-01T00:34:08;2.80;;;2.70;;
17925;SDS011;9088;55.674;13.354;2023-04-01T00:36:35;2.80;;;2.70;;
17925;SDS011;9088;55.674;13.354;2023-04-01T00:39:03;2.80;;;2.70;;
17925;SDS011;9088;55.674;13.354;2023-04-01T00:41:31;2.70;;;2.60;;
17925;SDS011;9088;55.674;13.354;2023-04-01T00:44:12;2.90;;;2.80;;
17925;SDS011;9088;55.674;13.354;2023-04-01T00:46:41;2.90;;;2.80;;
17925;SDS011;9088;55.674;13.354;2023-04-01T00:49:08;2.90;;;2.80;;
17925;SDS011;9088;55.674;13.354;2023-04-01T00:51:35;2.80;;;2.70;;
17925;SDS011;9088;55.674;13.354;2023-04-01T00:54:04;2.80;;;2.70;;
17925;SDS011;9088;55.674;13.354;2023-04-01T00:56:33;2.90;;;2.80;;
17925;SDS011;9088;55.674;13.354;2023-04-01T00:59:02;3.10;;;3.00;;
17925;SDS011;9088;55.674;13.354;2023-04-01T01:01:33;2.80;;;2.70;;
17925;SDS011;9088;55.674;13.354;2023-04-01T01:04:01;2.83;;;2.73;;
17925;SDS011;9088;55.674;13.354;2023-04-01T01:06:32;2.80;;;2.70;;
17925;SDS011;9088;55.674;13.354;2023-04-01T01:09:06;2.60;;;2.50;;
17925;SDS011;9088;55.674;13.354;2023-04-01T01:11:39;2.73;;;2.63;;
17925;SDS011;9088;55.674;13.354;2023-04-01T01:14:09;2.70;;;2.60;;
17925;SDS011;9088;55.674;13.354;2023-04-01T01:16:39;2.80;;;2.70;;
17925;SDS011;9088;55.674;13.354;2023-04-01T01:19:08;2.90;;;2.80;;
17925;SDS011;9088;55.674;13.354;2023-04-01T01:24:49;2.87;;;2.77;;
17925;SDS011;9088;55.674;13.354;2023-04-01T01:27:19;2.80;;;2.70;;
17925;SDS011;9088;55.674;13.354;2023-04-01T01:29:55;2.70;;;2.60;;
17925;SDS011;9088;55.674;13.354;2023-04-01T01:32:31;2.80;;;2.70;;
17925;SDS011;9088;55.674;13.354;2023-04-01T01:35:09;3.00;;;2.90;;
17925;SDS011;9088;55.674;13.354;2023-04-01T01:37:38;2.80;;;2.70;;
17925;SDS011;9088;55.674;13.354;2023-04-01T01:40:07;2.80;;;2.70;;
17925;SDS011;9088;55.674;13.354;2023-04-01T01:42:36;2.90;;;2.80;;
17925;SDS011;9088;55.674;13.354;2023-04-01T01:45:04;2.90;;;2.80;;
17925;SDS011;9088;55.674;13.354;2023-04-01T01:47:32;2.70;;;2.60;;
17925;SDS011;9088;55.674;13.354;2023-04-01T01:50:00;2.60;;;2.50;;
17925;SDS011;9088;55.674;13.354;2023-04-01T01:52:32;2.90;;;2.80;;
17925;SDS011;9088;55.674;13.354;2023-04-01T01:54:59;2.80;;;2.70;;
17925;SDS011;9088;55.674;13.354;2023-04-01T01:57:28;2.90;;;2.80;;
17925;SDS011;9088;55.674;13.354;2023-04-01T01:59:56;3.10;;;3.00;;
17925;SDS011;9088;55.674;13.354;2023-04-01T02:02:25;2.70;;;2.60;;
17925;SDS011;9088;55.674;13.354;2023-04-01T02:04:56;2.83;;;2.73;;
17925;SDS011;9088;55.674;13.354;2023-04-01T02:07:23;2.80;;;2.70;;
17925;SDS011;9088;55.674;13.354;2023-04-01T02:09:53;2.80;;;2.70;;
17925;SDS011;9088;55.674;13.354;2023-04-01T02:12:20;2.80;;;2.70;;
17925;SDS011;9088;55.674;13.354;2023-04-01T02:14:50;3.00;;;2.90;;
17925;SDS011;9088;55.674;13.354;2023-04-01T02:17:19;2.80;;;2.70;;
17925;SDS011;9088;55.674;13.354;2023-04-01T02:19:48;2.70;;;2.60;;
17925;SDS011;9088;55.674;13.354;2023-04-01T02:22:16;2.70;;;2.60;;
17925;SDS011;9088;55.674;13.354;2023-04-01T02:24:45;2.70;;;2.60;;
17925;SDS011;9088;55.674;13.354;2023-04-01T02:27:13;2.70;;;2.60;;
17925;SDS011;9088;55.674;13.354;2023-04-01T02:29:40;2.73;;;2.63;;
17925;SDS011;9088;55.674;13.354;2023-04-01T02:32:07;2.70;;;2.60;;
17925;SDS011;9088;55.674;13.354;2023-04-01T02:34:35;2.70;;;2.60;;
17925;SDS011;9088;55.674;13.354;2023-04-01T02:37:02;2.70;;;2.60;;
17925;SDS011;9088;55.674;13.354;2023-04-01T02:39:30;2.70;;;2.60;;
17925;SDS011;9088;55.674;13.354;2023-04-01T02:41:57;2.70;;;2.60;;
17925;SDS011;9088;55.674;13.354;2023-04-01T02:44:25;2.67;;;2.57;;
17925;SDS011;9088;55.674;13.354;2023-04-01T02:46:52;2.70;;;2.60;;
17925;SDS011;9088;55.674;13.354;2023-04-01T02:49:19;2.60;;;2.50;;
17925;SDS011;9088;55.674;13.354;2023-04-01T02:51:46;2.70;;;2.60;;
17925;SDS011;9088;55.674;13.354;2023-04-01T02:54:13;2.70;;;2.60;;
17925;SDS011;9088;55.674;13.354;2023-04-01T02:56:40;2.50;;;2.40;;
17925;SDS011;9088;55.674;13.354;2023-04-01T02:59:08;2.70;;;2.60;;
17925;SDS011;9088;55.674;13.354;2023-04-01T03:01:36;2.50;;;2.40;;
17925;SDS011;9088;55.674;13.354;2023-04-01T03:04:03;2.53;;;2.43;;
17925;SDS011;9088;55.674;13.354;2023-04-01T03:06:30;2.50;;;2.40;;
17925;SDS011;9088;55.674;13.354;2023-04-01T03:08:58;2.50;;;2.40;;
17925;SDS011;9088;55.674;13.354;2023-04-01T03:11:25;2.60;;;2.50;;
17925;SDS011;9088;55.674;13.354;2023-04-01T03:13:52;2.60;;;2.50;;
17925;SDS011;9088;55.674;13.354;2023-04-01T03:16:22;2.63;;;2.53;;
17925;SDS011;9088;55.674;13.354;2023-04-01T03:18:53;2.53;;;2.43;;
17925;SDS011;9088;55.674;13.354;2023-04-01T03:21:24;2.50;;;2.40;;
17925;SDS011;9088;55.674;13.354;2023-04-01T03:23:51;2.57;;;2.47;;
17925;SDS011;9088;55.674;13.354;2023-04-01T03:26:18;2.50;;;2.40;;
17925;SDS011;9088;55.674;13.354;2023-04-01T03:28:46;2.60;;;2.50;;
17925;SDS011;9088;55.674;13.354;2023-04-01T03:31:13;2.67;;;2.57;;
17925;SDS011;9088;55.674;13.354;2023-04-01T03:33:41;2.80;;;2.70;;
17925;SDS011;9088;55.674;13.354;2023-04-01T03:36:09;2.80;;;2.70;;
17925;SDS011;9088;55.674;13.354;2023-04-01T03:38:37;2.90;;;2.80;;
17925;SDS011;9088;55.674;13.354;2023-04-01T03:41:05;2.70;;;2.60;;
17925;SDS011;9088;55.674;13.354;2023-04-01T03:43:32;2.70;;;2.60;;
17925;SDS011;9088;55.674;13.354;2023-04-01T03:45:59;2.80;;;2.70;;
17925;SDS011;9088;55.674;13.354;2023-04-01T03:48:26;2.60;;;2.50;;
17925;SDS011;9088;55.674;13.354;2023-04-01T03:50:53;2.70;;;2.60;;
17925;SDS011;9088;55.674;13.354;2023-04-01T03:53:22;2.53;;;2.43;;
17925;SDS011;9088;55.674;13.354;2023-04-01T03:55:49;2.40;;;2.30;;
17925;SDS011;9088;55.674;13.354;2023-04-01T03:58:17;2.50;;;2.40;;
17925;SDS011;9088;55.674;13.354;2023-04-01T04:00:44;2.40;;;2.30;;
17925;SDS011;9088;55.674;13.354;2023-04-01T04:03:11;2.40;;;2.30;;
17925;SDS011;9088;55.674;13.354;2023-04-01T04:05:40;2.40;;;2.30;;
17925;SDS011;9088;55.674;13.354;2023-04-01T04:08:12;2.30;;;2.20;;
17925;SDS011;9088;55.674;13.354;2023-04-01T04:10:40;2.40;;;2.30;;
17925;SDS011;9088;55.674;13.354;2023-04-01T04:13:08;2.40;;;2.30;;
17925;SDS011;9088;55.674;13.354;2023-04-01T04:15:35;2.40;;;2.30;;
17925;SDS011;9088;55.674;13.354;2023-04-01T04:18:02;2.50;;;2.40;;
17925;SDS011;9088;55.674;13.354;2023-04-01T04:20:29;2.50;;;2.40;;
17925;SDS011;9088;55.674;13.354;2023-04-01T04:22:56;2.37;;;2.27;;
17925;SDS011;9088;55.674;13.354;2023-04-01T04:25:23;2.40;;;2.30;;
17925;SDS011;9088;55.674;13.354;2023-04-01T04:27:51;2.33;;;2.23;;
17925;SDS011;9088;55.674;13.354;2023-04-01T04:30:18;2.50;;;2.40;;
17925;SDS011;9088;55.674;13.354;2023-04-01T04:32:45;2.30;;;2.20;;
17925;SDS011;9088;55.674;13.354;2023-04-01T04:35:12;2.40;;;2.30;;
17925;SDS011;9088;55.674;13.354;2023-04-01T04:37:40;2.37;;;2.27;;
17925;SDS011;9088;55.674;13.354;2023-04-01T04:40:07;2.40;;;2.30;;
17925;SDS011;9088;55.674;13.354;2023-04-01T04:42:34;2.40;;;2.30;;
17925;SDS011;9088;55.674;13.354;2023-04-01T04:45:03;2.30;;;2.20;;
17925;SDS011;9088;55.674;13.354;2023-04-01T04:47:30;2.30;;;2.20;;
17925;SDS011;9088;55.674;13.354;2023-04-01T04:49:57;2.30;;;2.20;;
17925;SDS011;9088;55.674;13.354;2023-04-01T04:52:28;2.13;;;2.03;;
17925;SDS011;9088;55.674;13.354;2023-04-01T04:54:55;2.13;;;2.03;;
17925;SDS011;9088;55.674;13.354;2023-04-01T04:57:22;2.50;;;2.40;;
17925;SDS011;9088;55.674;13.354;2023-04-01T04:59:49;2.33;;;2.23;;
17925;SDS011;9088;55.674;13.354;2023-04-01T05:02:17;2.20;;;2.10;;
17925;SDS011;9088;55.674;13.354;2023-04-01T05:04:49;2.30;;;2.20;;
17925;SDS011;9088;55.674;13.354;2023-04-01T05:07:16;2.30;;;2.20;;
17925;SDS011;9088;55.674;13.354;2023-04-01T05:09:43;10.87;;;10.47;;
17925;SDS011;9088;55.674;13.354;2023-04-01T05:12:14;10.83;;;10.43;;
17925;SDS011;9088;55.674;13.354;2023-04-01T05:14:41;11.23;;;10.77;;
17925;SDS011;9088;55.674;13.354;2023-04-01T05:17:08;11.50;;;11.00;;
17925;SDS011;9088;55.674;13.354;2023-04-01T05:19:37;11.90;;;11.40;;
17925;SDS011;9088;55.674;13.354;2023-04-01T05:22:04;11.80;;;11.30;;
17925;SDS011;9088;55.674;13.354;2023-04-01T05:24:31;11.10;;;10.67;;
17925;SDS011;9088;55.674;13.354;2023-04-01T05:26:58;11.13;;;10.70;;
17925;SDS011;9088;55.674;13.354;2023-04-01T05:29:26;11.10;;;10.70;;
17925;SDS011;9088;55.674;13.354;2023-04-01T05:31:53;10.53;;;10.13;;
17925;SDS011;9088;55.674;13.354;2023-04-01T05:34:20;10.50;;;10.10;;
17925;SDS011;9088;55.674;13.354;2023-04-01T05:36:48;10.50;;;10.10;;
17925;SDS011;9088;55.674;13.354;2023-04-01T05:39:15;10.57;;;10.17;;
17925;SDS011;9088;55.674;13.354;2023-04-01T05:41:43;10.30;;;9.90;;
17925;SDS011;9088;55.674;13.354;2023-04-01T05:44:10;10.50;;;10.10;;
17925;SDS011;9088;55.674;13.354;2023-04-01T05:46:38;10.60;;;10.20;;
17925;SDS011;9088;55.674;13.354;2023-04-01T05:49:05;10.30;;;9.90;;
17925;SDS011;9088;55.674;13.354;2023-04-01T05:51:32;9.80;;;9.40;;
17925;SDS011;9088;55.674;13.354;2023-04-01T05:54:00;10.10;;;9.70;;
17925;SDS011;9088;55.674;13.354;2023-04-01T05:56:27;9.87;;;9.47;;
17925;SDS011;9088;55.674;13.354;2023-04-01T05:58:54;9.63;;;9.23;;
17925;SDS011;9088;55.674;13.354;2023-04-01T06:01:21;9.17;;;8.77;;
17925;SDS011;9088;55.674;13.354;2023-04-01T06:03:48;8.80;;;8.50;;
17925;SDS011;9088;55.674;13.354;2023-04-01T06:06:16;8.60;;;8.30;;
17925;SDS011;9088;55.674;13.354;2023-04-01T06:08:45;8.77;;;8.47;;
17925;SDS011;9088;55.674;13.354;2023-04-01T06:11:16;9.20;;;8.80;;
17925;SDS011;9088;55.674;13.354;2023-04-01T06:13:56;8.63;;;8.33;;
17925;SDS011;9088;55.674;13.354;2023-04-01T06:16:27;8.70;;;8.40;;
17925;SDS011;9088;55.674;13.354;2023-04-01T06:19:09;8.30;;;8.00;;
17925;SDS011;9088;55.674;13.354;2023-04-01T06:24:25;8.50;;;8.20;;
17925;SDS011;9088;55.674;13.354;2023-04-01T06:26:59;8.50;;;8.20;;
17925;SDS011;9088;55.674;13.354;2023-04-01T06:29:33;8.50;;;8.20;;
17925;SDS011;9088;55.674;13.354;2023-04-01T06:32:18;8.40;;;8.10;;
17925;SDS011;9088;55.674;13.354;2023-04-01T06:34:51;8.30;;;8.00;;
17925;SDS011;9088;55.674;13.354;2023-04-01T06:37:28;8.03;;;7.73;;
17925;SDS011;9088;55.674;13.354;2023-04-01T06:40:16;8.30;;;8.00;;
17925;SDS011;9088;55.674;13.354;2023-04-01T06:42:49;8.23;;;7.93;;
17925;SDS011;9088;55.674;13.354;2023-04-01T06:45:25;8.33;;;8.03;;
17925;SDS011;9088;55.674;13.354;2023-04-01T06:47:58;8.53;;;8.23;;
17925;SDS011;9088;55.674;13.354;2023-04-01T06:50:28;8.50;;;8.20;;
17925;SDS011;9088;55.674;13.354;2023-04-01T06:52:58;7.93;;;7.63;;
17925;SDS011;9088;55.674;13.354;2023-04-01T06:55:27;8.47;;;8.17;;
17925;SDS011;9088;55.674;13.354;2023-04-01T06:57:59;8.47;;;8.17;;
17925;SDS011;9088;55.674;13.354;2023-04-01T07:00:29;8.57;;;8.27;;
17925;SDS011;9088;55.674;13.354;2023-04-01T07:03:00;8.30;;;8.00;;
17925;SDS011;9088;55.674;13.354;2023-04-01T07:05:30;8.10;;;7.80;;
17925;SDS011;9088;55.674;13.354;2023-04-01T07:07:58;8.37;;;8.07;;
17925;SDS011;9088;55.674;13.354;2023-04-01T07:10:31;8.03;;;7.73;;
17925;SDS011;9088;55.674;13.354;2023-04-01T07:13:02;7.93;;;7.63;;
17925;SDS011;9088;55.674;13.354;2023-04-01T07:15:32;7.80;;;7.50;;
17925;SDS011;9088;55.674;13.354;2023-04-01T07:18:02;7.50;;;7.20;;
17925;SDS011;9088;55.674;13.354;2023-04-01T07:20:32;7.57;;;7.27;;
17925;SDS011;9088;55.674;13.354;2023-04-01T07:22:59;7.57;;;7.27;;
17925;SDS011;9088;55.674;13.354;2023-04-01T07:25:28;7.60;;;7.30;;
17925;SDS011;9088;55.674;13.354;2023-04-01T07:27:57;7.57;;;7.27;;
17925;SDS011;9088;55.674;13.354;2023-04-01T07:30:28;7.30;;;7.00;;
17925;SDS011;9088;55.674;13.354;2023-04-01T07:32:57;7.23;;;6.93;;
17925;SDS011;9088;55.674;13.354;2023-04-01T07:35:26;7.30;;;7.00;;
17925;SDS011;9088;55.674;13.354;2023-04-01T07:38:00;7.10;;;6.80;;
17925;SDS011;9088;55.674;13.354;2023-04-01T07:40:31;7.13;;;6.83;;
17925;SDS011;9088;55.674;13.354;2023-04-01T07:45:47;6.40;;;6.20;;
17925;SDS011;9088;55.674;13.354;2023-04-01T07:48:19;6.33;;;6.13;;
17925;SDS011;9088;55.674;13.354;2023-04-01T07:50:50;6.80;;;6.50;;
17925;SDS011;9088;55.674;13.354;2023-04-01T07:53:19;6.70;;;6.40;;
17925;SDS011;9088;55.674;13.354;2023-04-01T07:55:50;7.00;;;6.70;;
17925;SDS011;9088;55.674;13.354;2023-04-01T07:58:19;6.23;;;6.03;;
17925;SDS011;9088;55.674;13.354;2023-04-01T08:00:52;6.40;;;6.20;;
17925;SDS011;9088;55.674;13.354;2023-04-01T08:03:28;6.40;;;6.20;;
17925;SDS011;9088;55.674;13.354;2023-04-01T08:05:59;6.20;;;6.00;;
17925;SDS011;9088;55.674;13.354;2023-04-01T08:08:29;6.03;;;5.83;;
17925;SDS011;9088;55.674;13.354;2023-04-01T08:11:01;6.30;;;6.10;;
17925;SDS011;9088;55.674;13.354;2023-04-01T08:13:33;6.20;;;6.00;;
17925;SDS011;9088;55.674;13.354;2023-04-01T08:16:05;5.93;;;5.73;;
17925;SDS011;9088;55.674;13.354;2023-04-01T08:18:38;5.70;;;5.50;;
17925;SDS011;9088;55.674;13.354;2023-04-01T08:21:10;5.67;;;5.47;;
17925;SDS011;9088;55.674;13.354;2023-04-01T08:23:38;6.00;;;5.80;;
17925;SDS011;9088;55.674;13.354;2023-04-01T08:26:10;6.00;;;5.80;;
17925;SDS011;9088;55.674;13.354;2023-04-01T08:28:40;5.80;;;5.60;;
17925;SDS011;9088;55.674;13.354;2023-04-01T08:31:11;6.00;;;5.80;;
17925;SDS011;9088;55.674;13.354;2023-04-01T08:33:41;5.90;;;5.70;;
17925;SDS011;9088;55.674;13.354;2023-04-01T08:36:09;5.30;;;5.10;;
17925;SDS011;9088;55.674;13.354;2023-04-01T08:38:38;5.30;;;5.10;;
17925;SDS011;9088;55.674;13.354;2023-04-01T08:41:20;5.10;;;4.90;;
17925;SDS011;9088;55.674;13.354;2023-04-01T08:43:51;5.00;;;4.80;;
17925;SDS011;9088;55.674;13.354;2023-04-01T08:49:15;5.37;;;5.17;;
17925;SDS011;9088;55.674;13.354;2023-04-01T08:54:34;5.40;;;5.20;;
17925;SDS011;9088;55.674;13.354;2023-04-01T08:57:06;5.20;;;5.00;;
17925;SDS011;9088;55.674;13.354;2023-04-01T08:59:38;5.27;;;5.07;;
17925;SDS011;9088;55.674;13.354;2023-04-01T09:02:35;5.10;;;4.90;;
17925;SDS011;9088;55.674;13.354;2023-04-01T09:05:12;5.27;;;5.07;;
17925;SDS011;9088;55.674;13.354;2023-04-01T09:07:45;5.30;;;5.10;;
17925;SDS011;9088;55.674;13.354;2023-04-01T09:15:53;6.30;;;6.10;;
17925;SDS011;9088;55.674;13.354;2023-04-01T09:18:30;6.53;;;6.33;;
17925;SDS011;9088;55.674;13.354;2023-04-01T09:21:16;6.87;;;6.57;;
17925;SDS011;9088;55.674;13.354;2023-04-01T09:24:04;6.80;;;6.50;;
17925;SDS011;9088;55.674;13.354;2023-04-01T09:26:38;6.77;;;6.47;;
17925;SDS011;9088;55.674;13.354;2023-04-01T09:29:11;6.93;;;6.63;;
17925;SDS011;9088;55.674;13.354;2023-04-01T09:31:55;6.37;;;6.17;;
17925;SDS011;9088;55.674;13.354;2023-04-01T09:34:37;6.90;;;6.60;;
17925;SDS011;9088;55.674;13.354;2023-04-01T09:37:20;6.33;;;6.13;;
17925;SDS011;9088;55.674;13.354;2023-04-01T09:39:52;6.57;;;6.33;;
17925;SDS011;9088;55.674;13.354;2023-04-01T09:42:28;6.40;;;6.20;;
17925;SDS011;9088;55.674;13.354;2023-04-01T09:44:57;6.30;;;6.10;;
17925;SDS011;9088;55.674;13.354;2023-04-01T09:47:37;6.07;;;5.87;;
17925;SDS011;9088;55.674;13.354;2023-04-01T09:50:14;5.60;;;5.40;;
17925;SDS011;9088;55.674;13.354;2023-04-01T09:52:47;5.73;;;5.53;;
17925;SDS011;9088;55.674;13.354;2023-04-01T09:55:19;6.40;;;6.20;;
17925;SDS011;9088;55.674;13.354;2023-04-01T09:58:02;5.47;;;5.27;;
17925;SDS011;9088;55.674;13.354;2023-04-01T10:00:46;5.87;;;5.67;;
17925;SDS011;9088;55.674;13.354;2023-04-01T10:03:32;6.50;;;6.30;;
17925;SDS011;9088;55.674;13.354;2023-04-01T10:06:20;6.00;;;5.80;;
17925;SDS011;9088;55.674;13.354;2023-04-01T10:08:54;6.00;;;5.80;;
17925;SDS011;9088;55.674;13.354;2023-04-01T10:11:34;5.90;;;5.70;;
17925;SDS011;9088;55.674;13.354;2023-04-01T10:14:15;5.10;;;4.90;;
17925;SDS011;9088;55.674;13.354;2023-04-01T10:16:58;4.77;;;4.57;;
17925;SDS011;9088;55.674;13.354;2023-04-01T10:19:34;4.23;;;4.13;;
17925;SDS011;9088;55.674;13.354;2023-04-01T10:22:05;4.77;;;4.57;;
17925;SDS011;9088;55.674;13.354;2023-04-01T10:24:45;4.63;;;4.43;;
17925;SDS011;9088;55.674;13.354;2023-04-01T10:27:28;4.77;;;4.57;;
17925;SDS011;9088;55.674;13.354;2023-04-01T10:30:15;4.50;;;4.30;;
17925;SDS011;9088;55.674;13.354;2023-04-01T10:32:56;4.07;;;3.97;;
17925;SDS011;9088;55.674;13.354;2023-04-01T10:35:39;4.03;;;3.93;;
17925;SDS011;9088;55.674;13.354;2023-04-01T10:38:23;3.77;;;3.67;;
17925;SDS011;9088;55.674;13.354;2023-04-01T10:41:09;3.57;;;3.47;;
17925;SDS011;9088;55.674;13.354;2023-04-01T10:43:58;3.80;;;3.70;;
17925;SDS011;9088;55.674;13.354;2023-04-01T10:46:35;3.60;;;3.50;;
17925;SDS011;9088;55.674;13.354;2023-04-01T10:49:21;3.70;;;3.60;;
17925;SDS011;9088;55.674;13.354;2023-04-01T10:52:04;3.60;;;3.50;;
17925;SDS011;9088;55.674;13.354;2023-04-01T10:54:40;3.53;;;3.43;;
17925;SDS011;9088;55.674;13.354;2023-04-01T10:57:14;3.83;;;3.73;;
17925;SDS011;9088;55.674;13.354;2023-04-01T11:02:46;3.20;;;3.10;;
17925;SDS011;9088;55.674;13.354;2023-04-01T11:08:25;2.97;;;2.87;;
17925;SDS011;9088;55.674;13.354;2023-04-01T11:16:30;3.20;;;3.10;;
17925;SDS011;9088;55.674;13.354;2023-04-01T11:19:12;3.13;;;3.03;;
17925;SDS011;9088;55.674;13.354;2023-04-01T11:27:24;2.80;;;2.70;;
17925;SDS011;9088;55.674;13.354;2023-04-01T11:30:01;2.63;;;2.53;;
17925;SDS011;9088;55.674;13.354;2023-04-01T11:32:41;2.50;;;2.40;;
17925;SDS011;9088;55.674;13.354;2023-04-01T11:35:22;2.67;;;2.57;;
17925;SDS011;9088;55.674;13.354;2023-04-01T11:37:54;2.43;;;2.33;;
17925;SDS011;9088;55.674;13.354;2023-04-01T11:40:25;2.83;;;2.73;;
17925;SDS011;9088;55.674;13.354;2023-04-01T11:42:57;2.50;;;2.40;;
17925;SDS011;9088;55.674;13.354;2023-04-01T11:45:29;2.30;;;2.20;;
17925;SDS011;9088;55.674;13.354;2023-04-01T11:48:08;2.50;;;2.40;;
17925;SDS011;9088;55.674;13.354;2023-04-01T11:50:43;2.63;;;2.53;;
17925;SDS011;9088;55.674;13.354;2023-04-01T11:53:15;2.50;;;2.40;;
17925;SDS011;9088;55.674;13.354;2023-04-01T11:55:47;2.73;;;2.63;;
17925;SDS011;9088;55.674;13.354;2023-04-01T11:58:21;2.50;;;2.40;;
17925;SDS011;9088;55.674;13.354;2023-04-01T12:00:56;2.37;;;2.27;;
17925;SDS011;9088;55.674;13.354;2023-04-01T12:03:33;2.30;;;2.20;;
17925;SDS011;9088;55.674;13.354;2023-04-01T12:06:08;2.70;;;2.60;;
17925;SDS011;9088;55.674;13.354;2023-04-01T12:08:43;2.50;;;2.40;;
17925;SDS011;9088;55.674;13.354;2023-04-01T12:11:12;2.33;;;2.23;;
17925;SDS011;9088;55.674;13.354;2023-04-01T12:13:44;2.53;;;2.43;;
17925;SDS011;9088;55.674;13.354;2023-04-01T12:16:19;2.47;;;2.37;;
17925;SDS011;9088;55.674;13.354;2023-04-01T12:18:52;2.60;;;2.50;;
17925;SDS011;9088;55.674;13.354;2023-04-01T12:21:22;2.63;;;2.53;;
17925;SDS011;9088;55.674;13.354;2023-04-01T12:26:36;2.47;;;2.37;;
17925;SDS011;9088;55.674;13.354;2023-04-01T12:29:09;2.37;;;2.27;;
17925;SDS011;9088;55.674;13.354;2023-04-01T12:31:42;2.60;;;2.50;;
17925;SDS011;9088;55.674;13.354;2023-04-01T12:34:26;3.00;;;2.90;;
17925;SDS011;9088;55.674;13.354;2023-04-01T12:36:59;2.63;;;2.53;;
17925;SDS011;9088;55.674;13.354;2023-04-01T12:39:37;2.40;;;2.30;;
17925;SDS011;9088;55.674;13.354;2023-04-01T12:42:13;2.53;;;2.43;;
17925;SDS011;9088;55.674;13.354;2023-04-01T12:44:52;2.60;;;2.50;;
17925;SDS011;9088;55.674;13.354;2023-04-01T12:47:34;2.50;;;2.40;;
17925;SDS011;9088;55.674;13.354;2023-04-01T12:50:17;2.60;;;2.50;;
17925;SDS011;9088;55.674;13.354;2023-04-01T12:52:57;2.70;;;2.60;;
17925;SDS011;9088;55.674;13.354;2023-04-01T12:55:33;2.60;;;2.50;;
17925;SDS011;9088;55.674;13.354;2023-04-01T13:03:37;2.70;;;2.60;;
17925;SDS011;9088;55.674;13.354;2023-04-01T13:06:22;2.70;;;2.60;;
17925;SDS011;9088;55.674;13.354;2023-04-01T13:08:55;2.60;;;2.50;;
17925;SDS011;9088;55.674;13.354;2023-04-01T13:11:28;2.77;;;2.67;;
17925;SDS011;9088;55.674;13.354;2023-04-01T13:16:45;2.80;;;2.70;;
17925;SDS011;9088;55.674;13.354;2023-04-01T13:19:14;2.67;;;2.57;;
17925;SDS011;9088;55.674;13.354;2023-04-01T13:21:51;2.90;;;2.80;;
17925;SDS011;9088;55.674;13.354;2023-04-01T13:24:28;2.80;;;2.70;;
17925;SDS011;9088;55.674;13.354;2023-04-01T13:26:58;2.80;;;2.70;;
17925;SDS011;9088;55.674;13.354;2023-04-01T13:29:28;3.00;;;2.90;;
17925;SDS011;9088;55.674;13.354;2023-04-01T13:32:04;3.00;;;2.90;;
17925;SDS011;9088;55.674;13.354;2023-04-01T13:34:35;2.93;;;2.83;;
17925;SDS011;9088;55.674;13.354;2023-04-01T13:37:13;2.90;;;2.80;;
17925;SDS011;9088;55.674;13.354;2023-04-01T13:39:45;3.00;;;2.90;;
17925;SDS011;9088;55.674;13.354;2023-04-01T13:42:16;2.70;;;2.60;;
17925;SDS011;9088;55.674;13.354;2023-04-01T13:44:45;3.10;;;3.00;;
17925;SDS011;9088;55.674;13.354;2023-04-01T13:53:15;2.90;;;2.80;;
17925;SDS011;9088;55.674;13.354;2023-04-01T13:55:59;2.60;;;2.50;;
17925;SDS011;9088;55.674;13.354;2023-04-01T13:58:49;2.77;;;2.67;;
17925;SDS011;9088;55.674;13.354;2023-04-01T14:01:23;2.70;;;2.60;;
17925;SDS011;9088;55.674;13.354;2023-04-01T14:06:35;2.60;;;2.50;;
17925;SDS011;9088;55.674;13.354;2023-04-01T14:09:14;2.67;;;2.57;;
17925;SDS011;9088;55.674;13.354;2023-04-01T14:11:47;2.70;;;2.60;;
17925;SDS011;9088;55.674;13.354;2023-04-01T14:14:18;2.60;;;2.50;;
17925;SDS011;9088;55.674;13.354;2023-04-01T14:16:55;2.57;;;2.47;;
17925;SDS011;9088;55.674;13.354;2023-04-01T14:19:30;2.90;;;2.80;;
17925;SDS011;9088;55.674;13.354;2023-04-01T14:21:58;2.60;;;2.50;;
17925;SDS011;9088;55.674;13.354;2023-04-01T14:24:40;2.73;;;2.63;;
17925;SDS011;9088;55.674;13.354;2023-04-01T14:32:55;3.10;;;3.00;;
17925;SDS011;9088;55.674;13.354;2023-04-01T14:35:33;2.70;;;2.60;;
17925;SDS011;9088;55.674;13.354;2023-04-01T14:38:04;2.70;;;2.60;;
17925;SDS011;9088;55.674;13.354;2023-04-01T14:40:35;3.03;;;2.93;;
17925;SDS011;9088;55.674;13.354;2023-04-01T14:43:12;3.17;;;3.07;;
17925;SDS011;9088;55.674;13.354;2023-04-01T14:45:45;2.73;;;2.63;;
17925;SDS011;9088;55.674;13.354;2023-04-01T14:48:17;3.00;;;2.90;;
17925;SDS011;9088;55.674;13.354;2023-04-01T14:50:49;3.27;;;3.17;;
17925;SDS011;9088;55.674;13.354;2023-04-01T14:53:23;2.70;;;2.60;;
17925;SDS011;9088;55.674;13.354;2023-04-01T14:55:54;3.20;;;3.10;;
17925;SDS011;9088;55.674;13.354;2023-04-01T14:58:22;3.20;;;3.10;;
17925;SDS011;9088;55.674;13.354;2023-04-01T15:00:57;3.00;;;2.90;;
17925;SDS011;9088;55.674;13.354;2023-04-01T15:03:26;3.07;;;2.97;;
17925;SDS011;9088;55.674;13.354;2023-04-01T15:05:55;3.10;;;3.00;;
17925;SDS011;9088;55.674;13.354;2023-04-01T15:08:26;2.80;;;2.70;;
17925;SDS011;9088;55.674;13.354;2023-04-01T15:11:14;2.80;;;2.70;;
17925;SDS011;9088;55.674;13.354;2023-04-01T15:16:30;2.90;;;2.80;;
17925;SDS011;9088;55.674;13.354;2023-04-01T15:19:04;3.00;;;2.90;;
17925;SDS011;9088;55.674;13.354;2023-04-01T15:24:21;2.93;;;2.83;;
17925;SDS011;9088;55.674;13.354;2023-04-01T15:26:54;2.70;;;2.60;;
17925;SDS011;9088;55.674;13.354;2023-04-01T15:29:39;2.90;;;2.80;;
17925;SDS011;9088;55.674;13.354;2023-04-01T15:32:13;3.10;;;3.00;;
17925;SDS011;9088;55.674;13.354;2023-04-01T15:34:43;3.10;;;3.00;;
17925;SDS011;9088;55.674;13.354;2023-04-01T15:37:17;3.00;;;2.90;;
17925;SDS011;9088;55.674;13.354;2023-04-01T15:39:50;3.00;;;2.90;;
17925;SDS011;9088;55.674;13.354;2023-04-01T15:42:25;3.20;;;3.10;;
17925;SDS011;9088;55.674;13.354;2023-04-01T15:44:58;3.00;;;2.90;;
17925;SDS011;9088;55.674;13.354;2023-04-01T15:47:37;2.90;;;2.80;;
17925;SDS011;9088;55.674;13.354;2023-04-01T15:50:21;2.90;;;2.80;;
17925;SDS011;9088;55.674;13.354;2023-04-01T15:52:56;2.77;;;2.67;;
17925;SDS011;9088;55.674;13.354;2023-04-01T15:55:31;3.13;;;3.03;;
17925;SDS011;9088;55.674;13.354;2023-04-01T15:58:14;3.00;;;2.90;;
17925;SDS011;9088;55.674;13.354;2023-04-01T16:00:44;3.03;;;2.93;;
17925;SDS011;9088;55.674;13.354;2023-04-01T16:03:24;3.00;;;2.90;;
17925;SDS011;9088;55.674;13.354;2023-04-01T16:06:01;3.00;;;2.90;;
17925;SDS011;9088;55.674;13.354;2023-04-01T16:08:37;2.90;;;2.80;;
17925;SDS011;9088;55.674;13.354;2023-04-01T16:11:14;2.80;;;2.70;;
17925;SDS011;9088;55.674;13.354;2023-04-01T16:13:46;2.80;;;2.70;;
17925;SDS011;9088;55.674;13.354;2023-04-01T16:16:19;2.60;;;2.50;;
17925;SDS011;9088;55.674;13.354;2023-04-01T16:18:57;2.60;;;2.50;;
17925;SDS011;9088;55.674;13.354;2023-04-01T16:21:33;2.67;;;2.57;;
17925;SDS011;9088;55.674;13.354;2023-04-01T16:24:03;2.67;;;2.57;;